createdAt,value
2022-09-28T00:02:10.940Z,99.06
2022-09-28T00:05:12.853Z,99.32
2022-09-28T00:08:15.086Z,99.87
2022-09-28T00:11:20.911Z,100.00
2022-09-28T00:14:22.694Z,100.00
2022-09-28T00:17:26.953Z,100.00
2022-09-28T00:20:28.925Z,100.00
2022-09-28T00:23:30.813Z,100.00
2022-09-28T00:26:34.158Z,100.00
2022-09-28T00:29:38.245Z,100.00
2022-09-28T00:32:40.025Z,100.00
2022-09-28T00:35:41.887Z,100.00
2022-09-28T00:38:46.706Z,100.00
2022-09-28T00:41:50.489Z,100.00
2022-09-28T00:44:53.195Z,100.00
2022-09-28T00:47:58.213Z,100.00
2022-09-28T00:51:03.039Z,100.00
2022-09-28T00:54:05.841Z,100.00
2022-09-28T00:57:09.705Z,100.00
2022-09-28T01:00:12.542Z,100.00
2022-09-28T01:03:14.578Z,100.00
2022-09-28T01:06:18.284Z,100.00
2022-09-28T01:09:21.483Z,100.00
2022-09-28T01:12:24.886Z,100.00
2022-09-28T01:15:28.321Z,100.00
2022-09-28T01:18:35.638Z,100.00
2022-09-28T01:21:48.213Z,100.00
2022-09-28T01:24:54.746Z,100.00
2022-09-28T01:28:00.030Z,100.00
2022-09-28T01:31:08.189Z,100.00
2022-09-28T01:34:13.796Z,100.00
2022-09-28T01:37:18.477Z,100.00
2022-09-28T01:40:23.895Z,100.00
2022-09-28T01:43:28.266Z,100.00
2022-09-28T01:46:33.441Z,100.00
2022-09-28T01:49:38.835Z,100.00
2022-09-28T01:52:44.751Z,100.00
2022-09-28T01:55:48.746Z,100.00
2022-09-28T01:58:55.490Z,100.00
2022-09-28T02:01:58.976Z,100.00
2022-09-28T02:05:03.270Z,100.00
2022-09-28T02:08:07.825Z,100.00
2022-09-28T02:11:14.225Z,100.00
2022-09-28T02:14:20.788Z,100.00
2022-09-28T02:17:22.775Z,100.00
2022-09-28T02:20:25.311Z,100.00
2022-09-28T02:23:29.341Z,100.00
2022-09-28T02:26:32.380Z,100.00
2022-09-28T02:29:35.549Z,100.00
2022-09-28T02:32:40.507Z,100.00
2022-09-28T02:35:43.195Z,100.00
2022-09-28T02:38:44.995Z,100.00
2022-09-28T02:41:54.041Z,100.00
2022-09-28T02:45:10.999Z,100.00
2022-09-28T02:48:35.917Z,100.00
2022-09-28T02:51:45.078Z,100.00
2022-09-28T02:54:55.055Z,100.00
2022-09-28T02:58:03.805Z,100.00
2022-09-28T03:01:12.691Z,100.00
2022-09-28T03:04:18.977Z,100.00
2022-09-28T03:07:24.732Z,100.00
2022-09-28T03:10:31.015Z,100.00
2022-09-28T03:13:38.289Z,100.00
2022-09-28T03:16:44.921Z,100.00
2022-09-28T03:19:46.701Z,100.00
2022-09-28T03:23:06.021Z,100.00
2022-09-28T03:26:11.510Z,100.00
2022-09-28T03:29:13.731Z,100.00
2022-09-28T03:32:17.011Z,100.00
2022-09-28T03:35:19.309Z,100.00
2022-09-28T03:38:21.692Z,100.00
2022-09-28T03:41:24.395Z,100.00
2022-09-28T03:44:26.382Z,100.00
2022-09-28T03:47:30.658Z,100.00
2022-09-28T03:50:32.409Z,100.00
2022-09-28T03:53:34.048Z,100.00
2022-09-28T03:56:35.902Z,100.00
2022-09-28T03:59:37.772Z,100.00
2022-09-28T04:02:41.116Z,100.00
2022-09-28T04:05:48.931Z,100.00
2022-09-28T04:08:51.206Z,100.00
2022-09-28T04:12:03.716Z,100.00
2022-09-28T04:15:06.960Z,100.00
2022-09-28T04:18:11.305Z,100.00
2022-09-28T04:21:13.972Z,100.00
2022-09-28T04:24:15.829Z,100.00
2022-09-28T04:27:36.177Z,100.00
2022-09-28T04:30:38.103Z,100.00
2022-09-28T04:33:41.319Z,100.00
2022-09-28T04:36:46.042Z,100.00
2022-09-28T04:39:48.715Z,100.00
2022-09-28T04:42:53.487Z,100.00
2022-09-28T04:45:58.140Z,100.00
2022-09-28T04:49:01.821Z,100.00
2022-09-28T04:52:03.963Z,100.00
2022-09-28T04:55:06.461Z,100.00
2022-09-28T04:58:09.074Z,100.00
2022-09-28T05:01:12.406Z,100.00
2022-09-28T05:04:19.470Z,100.00
2022-09-28T05:07:23.413Z,100.00
2022-09-28T05:10:25.491Z,100.00
2022-09-28T05:13:27.538Z,100.00
2022-09-28T05:16:31.041Z,100.00
2022-09-28T05:19:35.172Z,100.00
2022-09-28T05:22:37.318Z,100.00
2022-09-28T05:25:39.120Z,100.00
2022-09-28T05:28:41.197Z,100.00
2022-09-28T05:31:43.254Z,100.00
2022-09-28T05:34:46.504Z,100.00
2022-09-28T05:37:48.778Z,100.00
2022-09-28T05:40:51.399Z,100.00
2022-09-28T05:43:55.037Z,100.00
2022-09-28T05:46:57.247Z,100.00
2022-09-28T05:50:00.570Z,100.00
2022-09-28T05:53:03.597Z,100.00
2022-09-28T05:56:05.604Z,100.00
2022-09-28T05:59:07.451Z,100.00
2022-09-28T06:02:10.182Z,100.00
2022-09-28T06:05:13.367Z,100.00
2022-09-28T06:08:15.106Z,100.00
2022-09-28T06:11:16.912Z,100.00
2022-09-28T06:14:20.808Z,100.00
2022-09-28T06:17:23.712Z,100.00
2022-09-28T06:20:29.397Z,100.00
2022-09-28T06:23:31.369Z,100.00
2022-09-28T06:26:33.259Z,100.00
2022-09-28T06:29:35.339Z,100.00
2022-09-28T06:32:38.058Z,100.00
2022-09-28T06:35:42.573Z,100.00
2022-09-28T06:38:45.280Z,100.00
2022-09-28T06:41:47.116Z,100.00
2022-09-28T06:44:49.038Z,100.00
2022-09-28T06:47:53.082Z,100.00
2022-09-28T06:51:00.103Z,100.00
2022-09-28T06:54:02.005Z,100.00
2022-09-28T06:57:03.926Z,100.00
2022-09-28T07:00:06.038Z,100.00
2022-09-28T07:03:08.503Z,100.00
2022-09-28T07:06:12.761Z,100.00
2022-09-28T07:09:30.655Z,100.00
2022-09-28T07:12:35.493Z,100.00
2022-09-28T07:15:38.301Z,100.00
2022-09-28T07:18:40.542Z,100.00
2022-09-28T07:21:46.155Z,100.00
2022-09-28T07:24:50.033Z,100.00
2022-09-28T07:27:55.567Z,100.00
2022-09-28T07:30:57.697Z,100.00
2022-09-28T07:33:59.414Z,100.00
2022-09-28T07:37:02.893Z,100.00
2022-09-28T07:40:24.277Z,100.00
2022-09-28T07:43:26.393Z,100.00
2022-09-28T07:46:29.601Z,100.00
2022-09-28T07:49:32.992Z,100.00
2022-09-28T07:52:37.270Z,100.00
2022-09-28T07:55:39.469Z,100.00
2022-09-28T07:58:41.253Z,100.00
2022-09-28T08:01:43.513Z,100.00
2022-09-28T08:04:45.801Z,100.00
2022-09-28T08:07:54.839Z,100.00
2022-09-28T08:10:56.806Z,100.00
2022-09-28T08:14:00.291Z,100.00
2022-09-28T08:17:02.159Z,100.00
2022-09-28T08:20:22.836Z,100.00
2022-09-28T08:23:34.383Z,100.00
2022-09-28T08:26:36.213Z,100.00
2022-09-28T08:29:38.277Z,100.00
2022-09-28T08:32:42.605Z,100.00
2022-09-28T08:35:46.947Z,100.00
2022-09-28T08:38:52.254Z,100.00
2022-09-28T08:41:59.246Z,100.00
2022-09-28T08:45:07.275Z,100.00
2022-09-28T08:48:30.759Z,100.00
2022-09-28T08:51:37.303Z,100.00
2022-09-28T08:54:46.353Z,100.00
2022-09-28T08:57:52.252Z,100.00
2022-09-28T09:00:57.875Z,100.00
2022-09-28T09:04:00.136Z,100.00
2022-09-28T09:07:19.755Z,100.00
2022-09-28T09:10:38.877Z,100.00
2022-09-28T09:13:52.631Z,100.00
2022-09-28T09:17:00.966Z,100.00
2022-09-28T09:20:09.446Z,100.00
2022-09-28T09:23:17.124Z,100.00
2022-09-28T09:26:25.754Z,100.00
2022-09-28T09:29:31.889Z,99.20
2022-09-28T09:32:53.573Z,98.58
2022-09-28T09:36:05.446Z,98.10
2022-09-28T09:39:17.382Z,98.26
2022-09-28T09:42:30.836Z,97.92
2022-09-28T09:45:41.071Z,98.03
2022-09-28T09:48:47.338Z,97.50
2022-09-28T09:51:54.487Z,97.88
2022-09-28T09:54:59.281Z,97.96
2022-09-28T09:58:05.408Z,97.91
2022-09-28T10:01:14.704Z,98.05
2022-09-28T10:04:20.017Z,98.36
2022-09-28T10:07:25.917Z,97.77
2022-09-28T10:10:28.848Z,98.34
2022-09-28T10:13:35.746Z,98.66
2022-09-28T10:16:37.751Z,99.19
2022-09-28T10:19:39.780Z,99.71
2022-09-28T10:22:42.096Z,100.00
2022-09-28T10:25:46.318Z,99.99
2022-09-28T10:28:52.479Z,100.00
2022-09-28T10:31:54.765Z,100.00
2022-09-28T10:35:19.599Z,100.00
2022-09-28T10:38:22.488Z,100.00
2022-09-28T10:41:27.722Z,100.00
2022-09-28T10:44:32.315Z,100.00
2022-09-28T10:47:35.688Z,100.00
2022-09-28T10:50:39.281Z,100.00
2022-09-28T10:53:41.399Z,100.00
2022-09-28T10:56:44.500Z,100.00
2022-09-28T10:59:47.705Z,100.00
2022-09-28T11:02:50.021Z,100.00
2022-09-28T11:05:56.796Z,100.00
2022-09-28T11:09:00.650Z,100.00
2022-09-28T11:12:04.559Z,100.00
2022-09-28T11:15:17.223Z,100.00
2022-09-28T11:18:22.609Z,100.00
2022-09-28T11:21:25.605Z,100.00
2022-09-28T11:24:27.654Z,100.00
2022-09-28T11:27:30.105Z,100.00
2022-09-28T11:30:35.038Z,100.00
2022-09-28T11:33:39.018Z,100.00
2022-09-28T11:36:51.915Z,100.00
2022-09-28T11:39:59.403Z,100.00
2022-09-28T11:43:08.269Z,100.00
2022-09-28T11:46:18.451Z,100.00
2022-09-28T11:49:27.020Z,100.00
2022-09-28T11:52:35.146Z,100.00
2022-09-28T11:55:41.252Z,100.00
2022-09-28T11:58:45.367Z,100.00
2022-09-28T12:01:52.097Z,99.71
2022-09-28T12:04:56.990Z,99.09
2022-09-28T12:08:02.496Z,99.29
2022-09-28T12:11:09.785Z,99.22
2022-09-28T12:14:17.900Z,99.22
2022-09-28T12:17:24.027Z,99.40
2022-09-28T12:20:27.440Z,99.58
2022-09-28T12:23:31.307Z,99.05
2022-09-28T12:26:37.350Z,98.97
2022-09-28T12:29:41.462Z,98.70
2022-09-28T12:32:46.995Z,98.12
2022-09-28T12:35:57.282Z,98.37
2022-09-28T12:39:21.845Z,98.50
2022-09-28T12:42:41.354Z,98.22
2022-09-28T12:46:10.595Z,98.07
2022-09-28T12:53:02.347Z,97.78
2022-09-28T12:56:11.217Z,97.28
2022-09-28T12:59:18.600Z,95.35
2022-09-28T13:02:38.490Z,96.17
2022-09-28T13:05:49.571Z,96.43
2022-09-28T13:09:01.532Z,95.53
2022-09-28T13:12:12.252Z,95.70
2022-09-28T13:15:23.843Z,95.67
2022-09-28T13:18:30.022Z,96.26
2022-09-28T13:21:39.363Z,95.27
2022-09-28T13:24:45.339Z,95.72
2022-09-28T13:27:50.958Z,95.36
2022-09-28T13:30:55.554Z,92.72
2022-09-28T13:33:58.184Z,93.54
2022-09-28T13:37:22.052Z,93.55
2022-09-28T13:40:48.843Z,93.00
2022-09-28T13:44:04.701Z,93.79
2022-09-28T13:47:24.130Z,92.71
2022-09-28T13:50:35.044Z,91.66
2022-09-28T13:53:46.389Z,91.88
2022-09-28T13:56:51.144Z,89.87
2022-09-28T13:59:59.146Z,89.91
2022-09-28T14:03:05.090Z,90.84
2022-09-28T14:06:12.023Z,89.37
2022-09-28T14:09:26.228Z,90.64
2022-09-28T14:12:44.631Z,90.64
2022-09-28T14:15:46.752Z,90.86
2022-09-28T14:18:50.964Z,90.91
2022-09-28T14:22:04.325Z,90.56
2022-09-28T14:25:15.337Z,90.36
2022-09-28T14:28:27.080Z,91.43
2022-09-28T14:31:29.730Z,91.85
2022-09-28T14:34:37.481Z,91.48
2022-09-28T14:38:03.722Z,90.52
2022-09-28T14:41:11.837Z,90.70
2022-09-28T14:44:14.479Z,90.93
2022-09-28T14:47:26.583Z,91.09
2022-09-28T14:50:31.346Z,90.92
2022-09-28T14:53:39.132Z,90.80
2022-09-28T14:56:45.572Z,90.70
2022-09-28T14:59:48.013Z,90.84
2022-09-28T15:02:52.627Z,90.58
2022-09-28T15:05:55.388Z,90.50
2022-09-28T15:08:57.279Z,90.65
2022-09-28T15:12:01.305Z,90.26
2022-09-28T15:15:05.772Z,90.08
2022-09-28T15:18:22.048Z,90.56
2022-09-28T15:21:24.233Z,90.26
2022-09-28T15:24:31.777Z,89.74
2022-09-28T15:27:39.135Z,89.64
2022-09-28T15:30:41.226Z,89.94
2022-09-28T15:34:01.209Z,89.38
2022-09-28T15:37:09.145Z,89.25
2022-09-28T15:40:12.862Z,88.93
2022-09-28T15:43:24.289Z,88.79
2022-09-28T15:46:32.684Z,88.09
2022-09-28T15:49:39.049Z,87.96
2022-09-28T15:52:46.616Z,87.88
2022-09-28T15:55:50.351Z,87.72
2022-09-28T15:59:19.853Z,87.59
2022-09-28T16:02:26.206Z,86.99
2022-09-28T16:05:37.874Z,87.17
2022-09-28T16:08:42.159Z,86.47
2022-09-28T16:11:44.061Z,86.73
2022-09-28T16:14:49.031Z,86.56
2022-09-28T16:17:52.430Z,86.60
2022-09-28T16:20:56.401Z,86.94
2022-09-28T16:23:58.795Z,87.10
2022-09-28T16:27:02.432Z,87.35
2022-09-28T16:30:16.963Z,87.86
2022-09-28T16:33:27.270Z,88.38
2022-09-28T16:36:39.197Z,88.22
2022-09-28T16:39:40.882Z,88.89
2022-09-28T16:42:48.937Z,88.96
2022-09-28T16:45:52.626Z,90.07
2022-09-28T16:48:55.776Z,91.08
2022-09-28T16:51:57.657Z,91.59
2022-09-28T16:58:39.797Z,92.29
2022-09-28T17:01:43.953Z,92.51
2022-09-28T17:04:47.780Z,92.99
2022-09-28T17:07:56.391Z,92.14
2022-09-28T17:11:24.006Z,93.05
2022-09-28T17:14:27.334Z,93.11
2022-09-28T17:17:31.567Z,93.35
2022-09-28T17:20:36.769Z,93.47
2022-09-28T17:23:38.850Z,93.73
2022-09-28T17:26:44.612Z,93.49
2022-09-28T17:29:47.104Z,93.59
2022-09-28T17:32:51.649Z,93.20
2022-09-28T17:35:58.401Z,92.94
2022-09-28T17:39:00.646Z,93.09
2022-09-28T17:42:02.956Z,93.64
2022-09-28T17:45:06.594Z,93.89
2022-09-28T17:48:12.653Z,93.98
2022-09-28T17:51:14.763Z,94.41
2022-09-28T17:54:21.159Z,94.56
2022-09-28T17:57:23.427Z,94.80
2022-09-28T18:00:27.522Z,94.86
2022-09-28T18:03:35.687Z,94.80
2022-09-28T18:06:41.614Z,94.48
2022-09-28T18:09:44.611Z,94.88
2022-09-28T18:12:46.624Z,94.85
2022-09-28T18:15:50.749Z,94.64
2022-09-28T18:18:58.400Z,94.65
2022-09-28T18:22:01.624Z,94.88
2022-09-28T18:25:03.741Z,94.64
2022-09-28T18:28:05.592Z,94.68
2022-09-28T18:31:08.924Z,94.80
2022-09-28T18:34:13.878Z,94.82
2022-09-28T18:37:15.814Z,95.06
2022-09-28T18:40:17.878Z,95.01
2022-09-28T18:43:23.860Z,95.05
2022-09-28T18:46:27.826Z,95.06
2022-09-28T18:49:31.892Z,95.50
2022-09-28T18:52:35.515Z,95.44
2022-09-28T18:55:39.256Z,95.24
2022-09-28T18:58:47.669Z,95.56
2022-09-28T19:01:50.111Z,95.42
2022-09-28T19:04:53.517Z,95.54
2022-09-28T19:07:55.386Z,95.50
2022-09-28T19:11:04.340Z,95.35
2022-09-28T19:14:06.297Z,95.77
2022-09-28T19:17:08.580Z,95.95
2022-09-28T19:20:12.065Z,95.71
2022-09-28T19:23:13.995Z,95.41
2022-09-28T19:26:16.801Z,95.72
2022-09-28T19:29:21.711Z,96.01
2022-09-28T19:32:23.495Z,96.10
2022-09-28T19:35:26.548Z,96.63
2022-09-28T19:38:29.110Z,96.49
2022-09-28T19:41:44.984Z,96.80
2022-09-28T19:44:47.645Z,96.71
2022-09-28T19:47:49.966Z,97.22
2022-09-28T19:50:59.098Z,97.13
2022-09-28T19:54:01.760Z,97.42
2022-09-28T19:57:08.859Z,97.48
2022-09-28T20:00:11.619Z,97.35
2022-09-28T20:03:13.471Z,97.56
2022-09-28T20:06:17.505Z,97.46
2022-09-28T20:09:25.190Z,97.28
2022-09-28T20:12:27.387Z,97.07
2022-09-28T20:15:29.230Z,97.12
2022-09-28T20:18:32.335Z,97.00
2022-09-28T20:21:35.730Z,97.05
2022-09-28T20:24:37.518Z,97.10
2022-09-28T20:27:39.829Z,96.84
2022-09-28T20:30:43.279Z,96.77
2022-09-28T20:33:45.395Z,96.70
2022-09-28T20:36:49.756Z,96.20
2022-09-28T20:39:51.721Z,96.35
2022-09-28T20:42:53.507Z,95.95
2022-09-28T20:45:56.064Z,95.89
2022-09-28T20:48:59.571Z,96.15
2022-09-28T20:52:03.281Z,95.81
2022-09-28T20:55:05.862Z,96.09
2022-09-28T20:58:07.922Z,96.11
2022-09-28T21:01:11.153Z,96.23
2022-09-28T21:04:13.405Z,96.15
2022-09-28T21:07:17.230Z,96.35
2022-09-28T21:10:19.096Z,96.15
2022-09-28T21:13:21.110Z,96.34
2022-09-28T21:16:23.163Z,96.33
2022-09-28T21:19:25.129Z,96.36
2022-09-28T21:22:30.146Z,96.33
2022-09-28T21:25:31.964Z,95.67
2022-09-28T21:28:34.594Z,95.72
2022-09-28T21:31:37.922Z,95.14
2022-09-28T21:34:39.871Z,95.57
2022-09-28T21:37:43.013Z,95.26
2022-09-28T21:40:45.330Z,95.40
2022-09-28T21:43:47.329Z,95.15
2022-09-28T21:46:49.759Z,95.10
2022-09-28T21:49:55.717Z,95.45
2022-09-28T21:53:12.590Z,95.31
2022-09-28T21:56:15.708Z,95.65
2022-09-28T21:59:17.409Z,95.32
2022-09-28T22:02:20.997Z,95.69
2022-09-28T22:05:22.918Z,95.63
2022-09-28T22:08:26.715Z,95.69
2022-09-28T22:11:31.766Z,95.51
2022-09-28T22:14:46.387Z,95.82
2022-09-28T22:17:48.753Z,96.04
2022-09-28T22:20:58.634Z,96.17
2022-09-28T22:24:04.079Z,96.13
2022-09-28T22:27:06.130Z,96.12
2022-09-28T22:30:08.610Z,96.34
2022-09-28T22:33:10.494Z,96.78
2022-09-28T22:36:15.179Z,96.59
2022-09-28T22:39:24.973Z,96.59
2022-09-28T22:42:26.784Z,97.14
2022-09-28T22:45:28.425Z,96.75
2022-09-28T22:48:30.901Z,96.95
2022-09-28T22:51:32.789Z,96.97
2022-09-28T22:54:37.680Z,97.20
2022-09-28T22:57:40.025Z,96.92
2022-09-28T23:00:44.376Z,96.83
2022-09-28T23:03:46.826Z,97.28
2022-09-28T23:06:49.564Z,97.64
2022-09-28T23:09:53.227Z,97.63
2022-09-28T23:12:55.339Z,97.66
2022-09-28T23:15:57.810Z,97.73
2022-09-28T23:18:59.767Z,98.05
2022-09-28T23:22:01.727Z,97.90
2022-09-28T23:25:05.459Z,97.74
2022-09-28T23:28:07.339Z,97.95
2022-09-28T23:31:09.845Z,97.94
2022-09-28T23:34:11.658Z,97.98
2022-09-28T23:37:14.217Z,97.86
2022-09-28T23:40:17.767Z,98.03
2022-09-28T23:43:19.873Z,98.60
2022-09-28T23:46:24.723Z,98.62
2022-09-28T23:49:29.341Z,98.79
2022-09-28T23:52:31.432Z,98.33
2022-09-28T23:55:35.885Z,98.58
2022-09-28T23:58:38.428Z,99.19
